createdAt,value
2017-07-19T00:00:07.094Z,92.20
2017-07-19T00:02:34.135Z,92.70
2017-07-19T00:05:00.410Z,92.40
2017-07-19T00:07:27.402Z,92.80
2017-07-19T00:09:53.640Z,92.80
2017-07-19T00:12:19.896Z,93.10
2017-07-19T00:14:46.149Z,93.10
2017-07-19T00:17:12.453Z,93.10
2017-07-19T00:19:38.725Z,93.50
2017-07-19T00:22:05.014Z,93.60
2017-07-19T00:24:31.280Z,93.30
2017-07-19T00:26:57.537Z,94.10
2017-07-19T00:29:23.805Z,94.00
2017-07-19T00:31:50.061Z,94.60
2017-07-19T00:34:16.305Z,95.10
2017-07-19T00:36:42.560Z,95.10
2017-07-19T00:39:08.846Z,95.20
2017-07-19T00:41:35.154Z,95.10
2017-07-19T00:44:02.161Z,95.10
2017-07-19T00:46:28.432Z,95.00
2017-07-19T00:48:55.446Z,95.70
2017-07-19T00:51:21.696Z,95.70
2017-07-19T00:53:47.974Z,96.00
2017-07-19T00:56:14.225Z,95.60
2017-07-19T00:58:40.469Z,96.20
2017-07-19T01:01:06.754Z,96.90
2017-07-19T01:03:33.031Z,96.20
2017-07-19T01:05:59.297Z,95.20
2017-07-19T01:08:25.559Z,95.60
2017-07-19T01:10:51.862Z,95.40
2017-07-19T01:13:18.117Z,95.60
2017-07-19T01:15:44.401Z,95.60
2017-07-19T01:18:11.433Z,96.00
2017-07-19T01:20:38.423Z,96.30
2017-07-19T01:23:04.684Z,96.00
2017-07-19T01:25:30.941Z,96.20
2017-07-19T01:27:57.945Z,96.70
2017-07-19T01:30:24.251Z,96.70
2017-07-19T01:32:50.525Z,97.50
2017-07-19T01:35:16.810Z,98.90
2017-07-19T01:37:43.084Z,98.70
2017-07-19T01:40:09.366Z,99.00
2017-07-19T01:42:36.740Z,98.90
2017-07-19T01:45:03.064Z,99.80
2017-07-19T01:47:29.326Z,99.90
2017-07-19T01:49:56.026Z,99.90
2017-07-19T01:52:22.328Z,99.90
2017-07-19T01:54:48.632Z,99.90
2017-07-19T01:57:14.913Z,99.90
2017-07-19T01:59:41.205Z,99.90
2017-07-19T02:02:08.200Z,99.90
2017-07-19T02:04:34.511Z,99.90
2017-07-19T02:07:00.847Z,99.90
2017-07-19T02:09:27.138Z,99.90
2017-07-19T02:11:54.187Z,99.90
2017-07-19T02:14:21.217Z,99.90
2017-07-19T02:16:47.478Z,99.90
2017-07-19T02:19:13.770Z,99.90
2017-07-19T02:21:40.016Z,99.90
2017-07-19T02:24:06.297Z,99.90
2017-07-19T02:26:32.565Z,99.90
2017-07-19T02:28:58.845Z,99.90
2017-07-19T02:31:25.136Z,99.90
2017-07-19T02:33:51.394Z,99.90
2017-07-19T02:36:18.698Z,99.90
2017-07-19T02:38:45.001Z,99.90
2017-07-19T02:41:11.249Z,99.90
2017-07-19T02:43:37.521Z,99.90
2017-07-19T02:46:03.797Z,99.90
2017-07-19T02:48:30.049Z,99.90
2017-07-19T02:50:56.330Z,99.90
2017-07-19T02:53:22.581Z,99.90
2017-07-19T02:55:48.870Z,99.90
2017-07-19T02:58:15.138Z,99.90
2017-07-19T03:00:41.405Z,99.90
2017-07-19T03:03:08.401Z,99.90
2017-07-19T03:05:34.660Z,99.90
2017-07-19T03:08:00.953Z,99.90
2017-07-19T03:10:27.201Z,99.90
2017-07-19T03:12:53.487Z,99.90
2017-07-19T03:15:19.741Z,99.90
2017-07-19T03:17:47.021Z,99.90
2017-07-19T03:20:13.313Z,99.90
2017-07-19T03:22:48.616Z,99.90
2017-07-19T03:25:15.632Z,99.90
2017-07-19T03:27:41.893Z,99.90
2017-07-19T03:30:08.902Z,99.90
2017-07-19T03:32:35.161Z,99.90
2017-07-19T03:35:02.184Z,99.90
2017-07-19T03:37:28.457Z,99.90
2017-07-19T03:39:55.716Z,99.90
2017-07-19T03:42:21.974Z,99.90
2017-07-19T03:44:48.237Z,99.90
2017-07-19T03:47:14.485Z,99.90
2017-07-19T03:49:40.768Z,99.90
2017-07-19T03:52:07.016Z,99.90
2017-07-19T03:54:33.301Z,99.90
2017-07-19T03:56:59.557Z,99.90
2017-07-19T03:59:25.820Z,99.90
2017-07-19T04:01:52.833Z,99.90
2017-07-19T04:04:19.110Z,99.90
2017-07-19T04:06:45.365Z,99.90
2017-07-19T04:09:11.621Z,99.90
2017-07-19T04:11:37.869Z,99.90
2017-07-19T04:14:04.889Z,99.90
2017-07-19T04:16:31.146Z,99.90
2017-07-19T04:18:58.148Z,99.90
2017-07-19T04:21:24.391Z,99.90
2017-07-19T04:23:50.649Z,99.90
2017-07-19T04:26:17.670Z,99.90
2017-07-19T04:28:43.917Z,99.90
2017-07-19T04:31:10.174Z,99.90
2017-07-19T04:33:36.441Z,99.90
2017-07-19T04:36:02.701Z,99.90
2017-07-19T04:38:28.978Z,99.90
2017-07-19T04:40:55.254Z,99.90
2017-07-19T04:43:21.504Z,99.90
2017-07-19T04:45:48.484Z,99.90
2017-07-19T04:48:14.737Z,99.90
2017-07-19T04:50:41.021Z,99.90
2017-07-19T04:53:07.272Z,99.90
2017-07-19T04:55:33.669Z,99.90
2017-07-19T04:57:59.948Z,99.90
2017-07-19T05:00:26.240Z,99.90
2017-07-19T05:02:52.518Z,99.90
2017-07-19T05:05:18.791Z,99.90
2017-07-19T05:07:45.049Z,99.90
2017-07-19T05:10:11.304Z,99.90
2017-07-19T05:12:37.570Z,99.90
2017-07-19T05:15:03.974Z,99.90
2017-07-19T05:17:30.228Z,99.90
2017-07-19T05:19:57.225Z,99.90
2017-07-19T05:22:23.479Z,99.90
2017-07-19T05:24:49.729Z,99.90
2017-07-19T05:27:16.748Z,99.90
2017-07-19T05:29:42.998Z,99.90
2017-07-19T05:32:09.255Z,99.90
2017-07-19T05:34:35.509Z,99.90
2017-07-19T05:37:01.777Z,99.90
2017-07-19T05:39:29.806Z,99.90
2017-07-19T05:41:56.058Z,99.90
2017-07-19T05:44:22.316Z,99.90
2017-07-19T05:46:49.321Z,99.90
2017-07-19T05:49:15.581Z,99.90
2017-07-19T05:51:42.610Z,99.90
2017-07-19T05:54:08.893Z,99.90
2017-07-19T05:56:35.166Z,99.90
2017-07-19T05:59:01.412Z,99.90
2017-07-19T06:01:28.412Z,99.90
2017-07-19T06:03:54.684Z,99.90
2017-07-19T06:06:21.705Z,99.90
2017-07-19T06:08:47.954Z,99.90
2017-07-19T06:11:14.957Z,99.90
2017-07-19T06:13:41.206Z,99.90
2017-07-19T06:16:07.481Z,99.90
2017-07-19T06:18:33.781Z,99.90
2017-07-19T06:21:00.032Z,99.90
2017-07-19T06:23:28.073Z,99.90
2017-07-19T06:25:54.329Z,99.90
2017-07-19T06:28:21.346Z,99.90
2017-07-19T06:30:47.615Z,99.90
2017-07-19T06:33:13.876Z,99.90
2017-07-19T06:35:40.141Z,99.90
2017-07-19T06:38:06.401Z,99.90
2017-07-19T06:40:32.752Z,99.90
2017-07-19T06:42:59.032Z,99.90
2017-07-19T06:45:25.281Z,99.90
2017-07-19T06:47:51.532Z,99.90
2017-07-19T06:50:18.805Z,99.90
2017-07-19T06:52:45.057Z,99.90
2017-07-19T06:55:12.065Z,99.90
2017-07-19T06:57:45.351Z,99.90
2017-07-19T07:00:11.613Z,99.90
2017-07-19T07:02:37.876Z,99.90
2017-07-19T07:05:04.889Z,99.50
2017-07-19T07:07:32.166Z,99.50
2017-07-19T07:09:58.426Z,98.20
2017-07-19T07:12:24.737Z,96.00
2017-07-19T07:14:51.031Z,94.40
2017-07-19T07:17:17.278Z,92.90
2017-07-19T07:19:43.536Z,90.10
2017-07-19T07:22:10.004Z,90.70
2017-07-19T07:24:36.271Z,90.00
2017-07-19T07:27:03.273Z,90.00
2017-07-19T07:29:29.528Z,90.00
2017-07-19T07:31:55.782Z,87.00
2017-07-19T07:34:22.790Z,84.90
2017-07-19T07:36:49.068Z,84.90
2017-07-19T07:39:15.327Z,83.60
2017-07-19T07:41:41.582Z,85.70
2017-07-19T07:44:07.825Z,84.10
2017-07-19T07:46:34.167Z,80.90
2017-07-19T07:49:02.205Z,80.20
2017-07-19T07:51:28.469Z,80.00
2017-07-19T07:53:55.464Z,81.60
2017-07-19T07:56:21.718Z,81.40
2017-07-19T07:58:47.977Z,74.90
2017-07-19T08:01:15.008Z,75.90
2017-07-19T08:03:41.273Z,75.80
2017-07-19T08:06:07.518Z,74.80
2017-07-19T08:08:33.773Z,72.90
2017-07-19T08:11:00.021Z,74.60
2017-07-19T08:13:26.308Z,72.70
2017-07-19T08:15:52.561Z,71.90
2017-07-19T08:18:18.813Z,73.30
2017-07-19T08:20:45.071Z,70.20
2017-07-19T08:23:11.333Z,68.80
2017-07-19T08:25:37.602Z,68.30
2017-07-19T08:28:04.609Z,65.50
2017-07-19T08:30:30.913Z,65.30
2017-07-19T08:32:57.174Z,64.80
2017-07-19T08:35:23.430Z,65.30
2017-07-19T08:37:50.453Z,62.50
2017-07-19T08:40:16.716Z,62.50
2017-07-19T08:42:42.968Z,59.40
2017-07-19T08:45:09.245Z,59.20
2017-07-19T08:47:35.505Z,59.60
2017-07-19T08:50:01.785Z,59.20
2017-07-19T08:52:28.046Z,57.80
2017-07-19T08:54:55.104Z,56.90
2017-07-19T08:57:22.093Z,56.90
2017-07-19T08:59:48.357Z,56.80
2017-07-19T09:02:14.658Z,54.10
2017-07-19T09:04:40.898Z,56.20
2017-07-19T09:07:07.153Z,55.20
2017-07-19T09:09:33.432Z,53.50
2017-07-19T09:11:59.681Z,53.60
2017-07-19T09:14:25.954Z,54.90
2017-07-19T09:16:52.948Z,53.30
2017-07-19T09:19:19.193Z,53.30
2017-07-19T09:21:45.437Z,53.70
2017-07-19T09:24:11.697Z,53.90
2017-07-19T09:26:37.961Z,53.70
2017-07-19T09:29:04.204Z,53.10
2017-07-19T09:31:30.461Z,53.10
2017-07-19T09:33:57.455Z,52.50
2017-07-19T09:36:23.709Z,52.50
2017-07-19T09:38:50.004Z,52.30
2017-07-19T09:41:16.266Z,52.50
2017-07-19T09:43:42.528Z,51.30
2017-07-19T09:46:08.772Z,50.90
2017-07-19T09:48:35.024Z,50.40
2017-07-19T09:51:01.319Z,48.90
2017-07-19T09:53:27.574Z,51.00
2017-07-19T09:55:53.836Z,50.80
2017-07-19T09:58:20.120Z,49.00
2017-07-19T10:00:46.371Z,50.00
2017-07-19T10:03:12.655Z,47.60
2017-07-19T10:05:38.913Z,48.60
2017-07-19T10:08:05.178Z,48.60
2017-07-19T10:10:31.440Z,49.20
2017-07-19T10:12:58.449Z,46.90
2017-07-19T10:15:24.769Z,46.90
2017-07-19T10:17:51.013Z,47.60
2017-07-19T10:20:17.265Z,46.90
2017-07-19T10:22:44.267Z,45.30
2017-07-19T10:25:10.517Z,45.20
2017-07-19T10:27:36.777Z,47.20
2017-07-19T10:30:03.803Z,46.00
2017-07-19T10:32:30.056Z,45.90
2017-07-19T10:34:56.306Z,46.90
2017-07-19T10:37:22.556Z,48.40
2017-07-19T10:39:48.829Z,46.20
2017-07-19T10:42:15.828Z,46.40
2017-07-19T10:44:42.073Z,46.40
2017-07-19T10:47:08.325Z,46.20
2017-07-19T10:49:35.318Z,47.60
2017-07-19T10:52:01.606Z,47.30
2017-07-19T10:54:28.597Z,48.00
2017-07-19T10:56:54.879Z,48.10
2017-07-19T10:59:21.898Z,47.20
2017-07-19T11:01:48.161Z,47.20
2017-07-19T11:04:15.177Z,49.00
2017-07-19T11:06:41.431Z,48.90
2017-07-19T11:09:08.421Z,45.00
2017-07-19T11:11:34.672Z,44.90
2017-07-19T11:14:00.924Z,44.80
2017-07-19T11:16:27.930Z,46.20
2017-07-19T11:18:54.178Z,46.50
2017-07-19T11:21:20.429Z,44.30
2017-07-19T11:23:47.457Z,45.20
2017-07-19T11:26:13.705Z,45.10
2017-07-19T11:28:40.708Z,45.20
2017-07-19T11:31:07.005Z,45.10
2017-07-19T11:33:33.259Z,44.40
2017-07-19T11:35:59.521Z,45.00
2017-07-19T11:38:25.772Z,47.20
2017-07-19T11:40:52.781Z,46.40
2017-07-19T11:43:19.033Z,46.40
2017-07-19T11:45:45.284Z,47.30
2017-07-19T11:48:11.538Z,45.70
2017-07-19T11:50:37.785Z,47.00
2017-07-19T11:53:05.894Z,47.80
2017-07-19T11:55:32.379Z,48.40
2017-07-19T11:58:00.234Z,48.40
2017-07-19T12:00:28.831Z,48.40
2017-07-19T12:02:58.262Z,47.60
2017-07-19T12:05:25.076Z,48.60
2017-07-19T12:07:51.451Z,48.20
2017-07-19T12:10:18.446Z,47.30
2017-07-19T12:12:44.721Z,47.30
2017-07-19T12:15:11.741Z,49.40
2017-07-19T12:17:37.990Z,49.30
2017-07-19T12:20:04.277Z,47.80
2017-07-19T12:22:30.521Z,48.30
2017-07-19T12:24:56.770Z,46.70
2017-07-19T12:27:23.063Z,46.70
2017-07-19T12:29:49.319Z,47.00
2017-07-19T12:32:15.559Z,48.20
2017-07-19T12:34:41.816Z,48.00
2017-07-19T12:37:08.074Z,48.80
2017-07-19T12:39:34.335Z,48.20
2017-07-19T12:42:00.590Z,47.50
2017-07-19T12:44:27.613Z,47.30
2017-07-19T12:46:53.873Z,47.40
2017-07-19T12:49:20.882Z,45.90
2017-07-19T12:51:47.153Z,45.80
2017-07-19T12:54:13.410Z,43.90
2017-07-19T12:56:39.665Z,43.20
2017-07-19T12:59:05.934Z,44.50
2017-07-19T13:01:32.193Z,42.10
2017-07-19T13:03:58.453Z,41.00
2017-07-19T13:06:24.711Z,40.50
2017-07-19T13:08:51.720Z,39.60
2017-07-19T13:11:17.997Z,39.60
2017-07-19T13:13:44.266Z,38.70
2017-07-19T13:16:10.519Z,39.20
2017-07-19T13:18:36.761Z,38.90
2017-07-19T13:21:03.765Z,39.40
2017-07-19T13:23:30.037Z,38.50
2017-07-19T13:25:57.035Z,40.40
2017-07-19T13:28:23.292Z,39.90
2017-07-19T13:30:49.542Z,39.10
2017-07-19T13:33:16.537Z,38.10
2017-07-19T13:35:42.813Z,38.00
2017-07-19T13:38:09.819Z,39.30
2017-07-19T13:40:36.071Z,39.30
2017-07-19T13:43:02.330Z,39.40
2017-07-19T13:45:28.576Z,37.90
2017-07-19T13:47:54.851Z,39.30
2017-07-19T13:50:21.112Z,38.50
2017-07-19T13:52:48.100Z,38.60
2017-07-19T13:55:14.341Z,38.60
2017-07-19T13:57:40.598Z,38.40
2017-07-19T14:00:06.886Z,38.20
2017-07-19T14:02:33.170Z,37.20
2017-07-19T14:05:00.167Z,37.60
2017-07-19T14:07:26.409Z,37.50
2017-07-19T14:09:52.661Z,37.00
2017-07-19T14:12:18.949Z,39.40
2017-07-19T14:14:45.206Z,39.00
2017-07-19T14:17:11.458Z,37.10
2017-07-19T14:19:37.705Z,36.80
2017-07-19T14:22:03.961Z,35.20
2017-07-19T14:24:30.246Z,35.50
2017-07-19T14:26:57.261Z,35.20
2017-07-19T14:29:23.544Z,35.10
2017-07-19T14:31:49.814Z,36.20
2017-07-19T14:34:16.084Z,35.00
2017-07-19T14:36:42.373Z,36.20
2017-07-19T14:39:08.633Z,36.20
2017-07-19T14:41:35.629Z,35.70
2017-07-19T14:44:01.881Z,35.70
2017-07-19T14:46:28.157Z,35.40
2017-07-19T14:48:54.427Z,36.60
2017-07-19T14:51:20.703Z,33.90
2017-07-19T14:53:46.966Z,33.50
2017-07-19T14:56:13.213Z,32.40
2017-07-19T14:58:39.473Z,32.40
2017-07-19T15:01:06.494Z,31.30
2017-07-19T15:03:32.741Z,31.20
2017-07-19T15:05:59.002Z,31.90
2017-07-19T15:08:25.257Z,32.20
2017-07-19T15:10:51.512Z,33.00
2017-07-19T15:13:17.780Z,31.50
2017-07-19T15:15:44.043Z,32.50
2017-07-19T15:18:10.331Z,32.50
2017-07-19T15:20:36.581Z,32.60
2017-07-19T15:23:02.837Z,32.70
2017-07-19T15:25:29.106Z,31.70
2017-07-19T15:27:55.366Z,31.30
2017-07-19T15:30:21.626Z,31.40
2017-07-19T15:32:47.880Z,31.70
2017-07-19T15:35:14.152Z,30.80
2017-07-19T15:37:40.445Z,30.80
2017-07-19T15:40:06.725Z,30.60
2017-07-19T15:42:32.977Z,30.10
2017-07-19T15:44:59.252Z,29.70
2017-07-19T15:47:25.506Z,30.20
2017-07-19T15:49:51.793Z,30.10
2017-07-19T15:52:18.797Z,30.00
2017-07-19T15:54:45.069Z,30.00
2017-07-19T15:57:11.333Z,29.70
2017-07-19T15:59:38.442Z,31.10
2017-07-19T16:02:04.733Z,31.70
2017-07-19T16:04:30.988Z,30.70
2017-07-19T16:06:57.233Z,30.40
2017-07-19T16:09:24.221Z,29.40
2017-07-19T16:11:50.478Z,29.40
2017-07-19T16:14:16.750Z,28.50
2017-07-19T16:16:43.009Z,29.70
2017-07-19T16:19:09.265Z,30.10
2017-07-19T16:21:35.537Z,29.60
2017-07-19T16:24:01.809Z,29.20
2017-07-19T16:26:28.114Z,29.50
2017-07-19T16:28:54.377Z,29.20
2017-07-19T16:31:20.625Z,29.00
2017-07-19T16:33:46.883Z,29.80
2017-07-19T16:36:13.137Z,29.80
2017-07-19T16:38:39.402Z,29.70
2017-07-19T16:41:06.427Z,28.10
2017-07-19T16:43:32.685Z,28.40
2017-07-19T16:45:58.933Z,28.50
2017-07-19T16:48:25.197Z,29.30
2017-07-19T16:50:51.473Z,29.40
2017-07-19T16:53:18.472Z,28.90
2017-07-19T16:55:44.717Z,29.30
2017-07-19T16:58:10.985Z,29.10
2017-07-19T17:00:37.999Z,28.90
2017-07-19T17:03:04.276Z,28.90
2017-07-19T17:05:30.538Z,29.40
2017-07-19T17:07:56.821Z,29.60
2017-07-19T17:10:23.827Z,30.10
2017-07-19T17:12:50.085Z,30.00
2017-07-19T17:15:17.158Z,29.30
2017-07-19T17:17:43.421Z,29.20
2017-07-19T17:20:09.668Z,29.80
2017-07-19T17:22:36.970Z,30.40
2017-07-19T17:25:03.221Z,34.50
2017-07-19T17:27:29.546Z,36.60
2017-07-19T17:29:55.793Z,39.10
2017-07-19T17:32:22.045Z,42.50
2017-07-19T17:34:48.303Z,46.20
2017-07-19T17:37:14.558Z,46.20
2017-07-19T17:39:40.829Z,46.60
2017-07-19T17:42:07.085Z,44.10
2017-07-19T17:44:33.350Z,48.50
2017-07-19T17:46:59.614Z,50.30
2017-07-19T17:49:25.866Z,50.30
2017-07-19T17:51:52.147Z,46.30
2017-07-19T17:54:18.402Z,49.60
2017-07-19T17:56:44.743Z,51.40
2017-07-19T17:59:10.993Z,51.10
2017-07-19T18:01:37.253Z,51.00
2017-07-19T18:04:04.769Z,53.20
2017-07-19T18:06:31.752Z,54.90
2017-07-19T18:08:58.006Z,54.90
2017-07-19T18:11:24.258Z,55.90
2017-07-19T18:13:50.545Z,56.10
2017-07-19T18:16:16.841Z,54.30
2017-07-19T18:18:43.103Z,54.70
2017-07-19T18:21:09.354Z,57.50
2017-07-19T18:23:35.605Z,56.80
2017-07-19T18:26:02.604Z,55.30
2017-07-19T18:28:28.856Z,55.30
2017-07-19T18:30:55.109Z,58.50
2017-07-19T18:33:22.114Z,59.70
2017-07-19T18:35:48.373Z,59.70
2017-07-19T18:38:14.705Z,59.20
2017-07-19T18:40:41.705Z,59.10
2017-07-19T18:43:07.970Z,59.00
2017-07-19T18:45:34.266Z,60.30
2017-07-19T18:48:00.516Z,61.00
2017-07-19T18:50:26.761Z,61.40
2017-07-19T18:52:53.052Z,62.40
2017-07-19T18:55:19.308Z,61.40
2017-07-19T18:57:45.568Z,61.40
2017-07-19T19:00:11.844Z,61.80
2017-07-19T19:02:38.118Z,61.30
2017-07-19T19:05:04.429Z,64.80
2017-07-19T19:07:30.681Z,63.60
2017-07-19T19:09:57.752Z,64.30
2017-07-19T19:12:24.008Z,64.20
2017-07-19T19:14:50.286Z,65.40
2017-07-19T19:17:17.298Z,66.00
2017-07-19T19:19:43.557Z,66.00
2017-07-19T19:22:10.549Z,67.30
2017-07-19T19:24:36.809Z,67.20
2017-07-19T19:27:03.135Z,68.30
2017-07-19T19:29:29.412Z,68.70
2017-07-19T19:31:55.994Z,69.40
2017-07-19T19:34:22.266Z,69.70
2017-07-19T19:36:48.522Z,70.10
2017-07-19T19:39:14.792Z,72.20
2017-07-19T19:41:42.141Z,74.40
2017-07-19T19:44:08.814Z,75.60
2017-07-19T19:46:36.169Z,74.00
2017-07-19T19:49:02.418Z,73.10
2017-07-19T19:51:28.676Z,71.30
2017-07-19T19:53:54.958Z,70.10
2017-07-19T19:56:21.221Z,71.40
2017-07-19T19:58:47.473Z,74.30
2017-07-19T20:01:13.724Z,72.80
2017-07-19T20:03:40.749Z,73.40
2017-07-19T20:06:07.050Z,73.30
2017-07-19T20:08:33.380Z,74.60
2017-07-19T20:10:59.750Z,74.70
2017-07-19T20:13:27.045Z,75.00
2017-07-19T20:15:53.290Z,75.00
2017-07-19T20:18:19.557Z,76.00
2017-07-19T20:20:45.804Z,77.20
2017-07-19T20:23:12.800Z,78.00
2017-07-19T20:25:39.056Z,77.80
2017-07-19T20:28:05.320Z,75.60
2017-07-19T20:30:31.589Z,77.70
2017-07-19T20:32:57.862Z,79.30
2017-07-19T20:35:24.861Z,77.70
2017-07-19T20:37:51.122Z,77.70
2017-07-19T20:40:17.368Z,76.90
2017-07-19T20:42:44.373Z,76.70
2017-07-19T20:45:10.700Z,76.60
2017-07-19T20:47:36.959Z,76.10
2017-07-19T20:50:03.953Z,78.00
2017-07-19T20:52:30.233Z,77.30
2017-07-19T20:54:57.236Z,80.10
2017-07-19T20:57:23.513Z,79.30
2017-07-19T20:59:49.769Z,83.00
2017-07-19T21:02:16.045Z,82.40
2017-07-19T21:04:42.303Z,84.30
2017-07-19T21:07:08.573Z,84.40
2017-07-19T21:09:35.187Z,82.40
2017-07-19T21:12:01.497Z,79.80
2017-07-19T21:14:28.532Z,77.60
2017-07-19T21:16:55.575Z,75.80
2017-07-19T21:19:21.899Z,75.70
2017-07-19T21:21:48.193Z,75.30
2017-07-19T21:24:14.507Z,74.40
2017-07-19T21:26:40.837Z,74.20
2017-07-19T21:29:07.173Z,73.10
2017-07-19T21:31:33.894Z,72.20
2017-07-19T21:34:00.258Z,72.00
2017-07-19T21:36:26.620Z,70.70
2017-07-19T21:38:52.977Z,70.60
2017-07-19T21:41:19.326Z,70.50
2017-07-19T21:43:45.715Z,70.00
2017-07-19T21:46:12.061Z,70.10
2017-07-19T21:48:39.135Z,68.70
2017-07-19T21:51:05.497Z,68.50
2017-07-19T21:53:31.845Z,68.70
2017-07-19T21:55:58.208Z,68.60
2017-07-19T21:58:25.285Z,69.20
2017-07-19T22:00:51.646Z,69.10
2017-07-19T22:03:17.939Z,69.60
2017-07-19T22:05:44.227Z,69.80
2017-07-19T22:08:10.550Z,69.50
2017-07-19T22:10:36.851Z,70.50
2017-07-19T22:13:03.146Z,71.30
2017-07-19T22:15:29.452Z,71.20
2017-07-19T22:17:56.520Z,72.70
2017-07-19T22:20:23.851Z,71.90
2017-07-19T22:22:50.894Z,73.60
2017-07-19T22:25:17.186Z,73.50
2017-07-19T22:27:43.486Z,73.40
2017-07-19T22:30:09.796Z,73.40
2017-07-19T22:32:36.881Z,72.50
2017-07-19T22:35:03.199Z,72.40
2017-07-19T22:37:29.507Z,73.00
2017-07-19T22:39:56.539Z,72.60
2017-07-19T22:42:23.614Z,70.90
2017-07-19T22:44:49.927Z,70.40
2017-07-19T22:47:17.964Z,69.00
2017-07-19T22:49:44.267Z,68.90
2017-07-19T22:52:11.603Z,68.60
2017-07-19T22:54:38.951Z,68.40
2017-07-19T22:57:05.292Z,69.20
2017-07-19T22:59:31.614Z,69.70
2017-07-19T23:01:57.911Z,70.00
2017-07-19T23:04:24.191Z,70.70
2017-07-19T23:06:50.483Z,71.70
2017-07-19T23:09:17.552Z,72.60
2017-07-19T23:11:43.848Z,72.60
2017-07-19T23:14:10.899Z,73.40
2017-07-19T23:16:37.967Z,74.10
2017-07-19T23:19:04.295Z,73.90
2017-07-19T23:21:30.644Z,74.00
2017-07-19T23:23:56.944Z,73.50
2017-07-19T23:26:23.974Z,73.10
2017-07-19T23:28:50.290Z,73.10
2017-07-19T23:31:16.585Z,72.70
2017-07-19T23:33:42.910Z,72.00
2017-07-19T23:36:09.199Z,71.70
2017-07-19T23:38:36.250Z,69.10
2017-07-19T23:41:03.296Z,68.90
2017-07-19T23:43:30.334Z,69.20
2017-07-19T23:45:56.647Z,69.20
2017-07-19T23:48:22.953Z,68.20
2017-07-19T23:50:49.250Z,67.40
2017-07-19T23:53:15.555Z,67.20
2017-07-19T23:55:42.587Z,68.10
2017-07-19T23:58:08.902Z,68.70
